Huvudsida
METAR-TAF:

METAR-TAF

Flygplatser :

Atyraws flygplats

Atyraw, Kazakstan

latitud: 47-07-19N, longitud: 051-49-17E, höjd: -22 m

Aktuellt väderrapport

Denna rapport gjordes för 36 minuter sedan, klockan 13:00 UTC
Vind 6 kt från nord, varierande mellan väst/nordväst och nordost
Temperatur 21°C
Fuktighet 17%
Tryck 1027 hPa
Sikt 10 km eller mer
Inga moln under 1 500 m eller inga cumulonimbus

METAR: UATG 271300Z 36003MPS 290V050 CAVOK 21/M05 Q1027 R32/CLRD70 NOSIG RMK QFE772/1029

Tid: 19:36 (13:36 UTC)

Väderprognos

Denna rapport gjordes för 2 timmar och 35 minuter sedan, klockan 11:01 UTC
Prognos gäller från 27 kl. 12 UTC till 28 kl. 12 UTC
Vind 12 kt från nord
Sikt 10 km eller mer
Spridda moln på en höjd av 3300 ft
Blir
från 27 kl. 14 UTC till 27 kl. 16 UTC
Vind 4 kt varierande vindriktning
Blir
från 28 kl. 04 UTC till 28 kl. 06 UTC
Vind 17 kt från väst/sydväst

TAF: UATG 271101Z 2712/2812 01006MPS 9999 SCT033 TX23/2812Z TN10/2801Z BECMG 2714/2716 VRB02MPS BECMG 2804/2806 24009MPS

Aktuella väderrapporter och prognoser från 4000 flygplatser (METAR- och TAF-rapporter).

De tillgängliga stationerna syns som gula och röda prickar på kartan.

För musen över prickarna för att se namnen på stationerna.

Klicka sedan för att få väderrapporter och prognoser.

För att ändra kartan: Klicka på de gröna knapparna med ett svart kors på för att zooma in; den gröna knappen med ett streck på för att zooma ut; eller på de gröna pilarna för angränsande kartor.


METAR-TAF: